Time;durP1;ratioP1;P1;durP2;ratioP2;P2;SDS_P1;SDS_P2;PMS_P1;PMS_P2;Temp;Humidity;BMP_temperature;BMP_pressure;BME280_temperature;BME280_humidity;BME280_pressure;Samples;Min_cycle;Max_cycle;Signal;HPM_P1;HPM_P2
2022/11/03 00:01:02;;;;;;;15.30;2.40;;;11.30;96.40;;;;;;6248486;22;20387;-82
2022/11/03 00:03:28;;;;;;;12.88;2.30;;;11.40;96.40;;;;;;6276457;22;20011;-83
2022/11/03 00:06:05;;;;;;;12.98;2.65;;;11.30;96.20;;;;;;6247077;22;20336;-83
2022/11/03 01:57:44;;;;;;;11.98;2.58;;;11.00;96.50;;;;;;6275492;22;20242;-83
2022/11/03 02:00:10;;;;;;;13.00;2.25;;;11.00;96.60;;;;;;6249650;22;20054;-83
2022/11/03 02:02:36;;;;;;;16.27;2.88;;;11.00;96.60;;;;;;6247964;22;20082;-83
2022/11/03 02:05:03;;;;;;;13.32;2.55;;;11.00;96.60;;;;;;6248615;22;20346;-83
2022/11/03 02:07:36;;;;;;;13.27;2.78;;;11.00;96.60;;;;;;6248809;22;20379;-84
2022/11/03 02:10:02;;;;;;;12.70;2.33;;;11.00;96.70;;;;;;6250812;22;20023;-83
2022/11/03 02:12:28;;;;;;;12.05;2.13;;;11.00;96.70;;;;;;6249276;22;20030;-83
2022/11/03 02:14:58;;;;;;;13.38;2.85;;;11.00;96.70;;;;;;6249242;22;20016;-83
2022/11/03 02:17:27;;;;;;;15.35;2.20;;;11.00;96.60;;;;;;6276172;22;20344;-83
2022/11/03 02:20:01;;;;;;;10.90;2.08;;;11.00;97.00;;;;;;6248740;22;20148;-83
2022/11/03 02:22:38;;;;;;;11.85;2.25;;;11.00;96.80;;;;;;6249380;22;20066;-83
2022/11/03 02:25:16;;;;;;;11.70;2.38;;;11.00;96.90;;;;;;6276154;22;20050;-84
2022/11/03 02:27:42;;;;;;;17.40;3.08;;;11.00;97.00;;;;;;6249575;22;20007;-83
2022/11/03 02:30:08;;;;;;;11.35;2.42;;;11.00;97.30;;;;;;6276977;22;20073;-83
2022/11/03 02:32:52;;;;;;;13.45;2.33;;;11.00;96.90;;;;;;6275827;22;20011;-83
2022/11/03 02:35:47;;;;;;;10.95;2.38;;;11.00;96.80;;;;;;6276899;22;20062;-83
2022/11/03 02:38:18;;;;;;;10.90;2.10;;;11.00;96.80;;;;;;6276117;22;20436;-84
2022/11/03 02:40:50;;;;;;;11.88;2.65;;;10.90;96.80;;;;;;6275141;22;20018;-84
2022/11/03 02:43:17;;;;;;;10.68;2.45;;;11.00;96.80;;;;;;6276048;22;20392;-83
2022/11/03 02:45:46;;;;;;;15.13;3.10;;;11.00;96.80;;;;;;6248722;22;20015;-82
2022/11/03 02:48:14;;;;;;;13.45;2.40;;;11.00;96.80;;;;;;6248709;22;20015;-83
2022/11/03 02:50:40;;;;;;;12.60;2.45;;;11.00;96.80;;;;;;6276068;22;20428;-83
2022/11/03 02:53:08;;;;;;;9.77;2.15;;;10.90;96.80;;;;;;6275855;22;20023;-83
2022/11/03 02:55:36;;;;;;;9.40;2.70;;;10.90;96.90;;;;;;6276043;22;20015;-83
2022/11/03 02:58:10;;;;;;;10.63;2.13;;;11.00;97.00;;;;;;6248754;22;20343;-82
2022/11/03 03:00:43;;;;;;;14.75;2.90;;;10.90;97.00;;;;;;6248288;22;20170;-83
2022/11/03 03:03:19;;;;;;;15.43;2.47;;;11.00;97.00;;;;;;6249487;22;20078;-83
2022/11/03 03:05:46;;;;;;;10.75;2.53;;;10.90;96.90;;;;;;6276135;22;20011;-84
2022/11/03 03:08:13;;;;;;;12.05;2.50;;;10.90;97.00;;;;;;6248810;22;20118;-83
2022/11/03 03:10:42;;;;;;;16.35;2.78;;;11.00;97.00;;;;;;6274345;22;20436;-83
2022/11/03 03:13:11;;;;;;;13.13;2.33;;;11.00;97.00;;;;;;6275913;22;20385;-83
2022/11/03 03:15:47;;;;;;;10.80;2.22;;;11.00;97.10;;;;;;6273827;22;20440;-83
2022/11/03 03:18:21;;;;;;;14.05;2.70;;;11.00;97.10;;;;;;6275754;22;20011;-83
2022/11/03 03:20:53;;;;;;;15.38;2.42;;;11.00;97.10;;;;;;6248444;22;20031;-83
2022/11/03 03:23:30;;;;;;;13.15;2.20;;;11.00;97.10;;;;;;6248367;22;20165;-83
2022/11/03 03:26:12;;;;;;;12.82;2.35;;;11.00;97.10;;;;;;6276141;22;20016;-83
2022/11/03 03:28:46;;;;;;;14.45;2.28;;;11.00;97.50;;;;;;6248420;22;20094;-83
2022/11/03 03:31:14;;;;;;;15.50;2.65;;;11.00;97.20;;;;;;6248342;22;20015;-83
2022/11/03 03:33:41;;;;;;;15.25;3.00;;;11.00;97.10;;;;;;6249021;22;20016;-83
2022/11/03 03:36:10;;;;;;;15.57;2.60;;;11.00;97.10;;;;;;6247669;22;20019;-83
2022/11/03 03:38:42;;;;;;;12.55;2.60;;;11.00;97.10;;;;;;6276542;22;20043;-83
2022/11/03 03:41:11;;;;;;;16.15;3.08;;;11.10;97.10;;;;;;6276188;22;20038;-83
2022/11/03 03:43:38;;;;;;;14.82;2.35;;;11.10;97.10;;;;;;6248220;22;20023;-83
2022/11/03 03:46:09;;;;;;;11.93;2.17;;;11.00;97.10;;;;;;6248138;22;20393;-83
2022/11/03 03:48:35;;;;;;;12.57;2.28;;;11.00;97.10;;;;;;6248510;22;20142;-83
2022/11/03 03:51:02;;;;;;;10.52;2.25;;;11.00;97.20;;;;;;6275387;22;20459;-83
2022/11/03 03:53:29;;;;;;;12.80;2.55;;;11.00;97.20;;;;;;6250715;22;20016;-83
2022/11/03 03:55:56;;;;;;;10.32;2.15;;;11.00;97.20;;;;;;6277452;22;20026;-83
2022/11/03 03:58:22;;;;;;;16.52;2.97;;;11.00;97.30;;;;;;6250177;22;20020;-83
2022/11/03 04:00:47;;;;;;;11.90;2.20;;;11.00;97.20;;;;;;6278093;22;20070;-84
2022/11/03 04:03:21;;;;;;;12.15;2.20;;;11.00;97.30;;;;;;6251154;22;20008;-83
2022/11/03 04:05:47;;;;;;;10.35;2.42;;;11.00;97.40;;;;;;6277115;22;20499;-83
2022/11/03 04:08:15;;;;;;;10.20;2.50;;;11.00;97.40;;;;;;6249842;22;20091;-82
2022/11/03 04:22:15;;;;;;;12.43;2.47;;;11.00;97.30;;;;;;6277229;22;20094;-83
2022/11/03 04:24:22;;;;;;;16.65;2.78;;;10.90;97.30;;;;;;6278059;22;20091;-82
2022/11/03 04:26:47;;;;;;;13.68;2.30;;;10.90;97.30;;;;;;6276513;22;20530;-83
2022/11/03 04:29:13;;;;;;;10.60;2.15;;;10.90;97.40;;;;;;6278322;22;20008;-83
2022/11/03 04:31:38;;;;;;;8.73;2.00;;;10.90;97.40;;;;;;6250141;22;20014;-82
2022/11/03 04:34:11;;;;;;;11.35;2.25;;;10.90;97.50;;;;;;6277157;22;20015;-83
2022/11/03 04:36:37;;;;;;;11.67;2.10;;;10.90;97.50;;;;;;6251087;22;20016;-83
2022/11/03 04:39:15;;;;;;;10.75;2.30;;;10.90;97.40;;;;;;6248931;22;20484;-82
2022/11/03 04:41:41;;;;;;;11.38;2.50;;;10.90;97.40;;;;;;6278191;22;20016;-83
2022/11/03 04:44:13;;;;;;;15.45;2.50;;;10.90;97.40;;;;;;6249653;22;20094;-83
2022/11/03 04:46:38;;;;;;;10.55;2.20;;;10.90;97.50;;;;;;6277195;22;20318;-83
2022/11/03 04:49:09;;;;;;;12.82;2.33;;;10.90;97.50;;;;;;6277760;22;20055;-83
2022/11/03 04:51:35;;;;;;;11.93;2.20;;;10.90;97.50;;;;;;6250369;22;20015;-83
2022/11/03 04:54:12;;;;;;;10.18;2.33;;;10.90;97.50;;;;;;6276237;22;20092;-83
2022/11/03 04:56:39;;;;;;;10.68;2.65;;;10.90;97.50;;;;;;6250611;22;20043;-83
2022/11/03 04:59:10;;;;;;;14.95;2.55;;;10.90;97.50;;;;;;6277113;22;20016;-83
2022/11/03 05:01:36;;;;;;;12.63;2.30;;;10.90;97.60;;;;;;6276450;22;20016;-83
2022/11/03 05:04:07;;;;;;;11.48;2.20;;;10.90;97.50;;;;;;6248778;22;20333;-82
2022/11/03 05:06:32;;;;;;;11.43;1.95;;;10.90;97.60;;;;;;6249849;22;20098;-83
2022/11/03 05:09:01;;;;;;;12.68;2.35;;;10.90;97.60;;;;;;6275634;22;20047;-82
2022/11/03 05:11:30;;;;;;;10.35;2.50;;;11.00;97.60;;;;;;6276061;22;20018;-82
2022/11/03 05:14:01;;;;;;;13.95;2.40;;;11.00;97.60;;;;;;6273985;22;20074;-90
2022/11/03 05:16:28;;;;;;;12.93;2.67;;;11.00;97.60;;;;;;6242475;22;20062;-91
2022/11/03 05:18:54;;;;;;;12.35;2.42;;;11.00;97.60;;;;;;6251073;22;20016;-90
2022/11/03 05:21:22;;;;;;;11.23;2.08;;;11.00;97.60;;;;;;6278038;22;20094;-90
2022/11/03 05:23:51;;;;;;;11.77;2.40;;;11.00;97.60;;;;;;6250929;22;20019;-83
2022/11/03 05:26:24;;;;;;;13.75;2.53;;;11.00;97.60;;;;;;6277382;22;20087;-82
2022/11/03 05:28:51;;;;;;;;;;;11.00;97.60;;;;;;6275319;22;20007;-84
2022/11/03 05:31:23;;;;;;;15.10;2.28;;;10.90;97.30;;;;;;6250392;22;19915;-83
2022/11/03 05:33:52;;;;;;;9.60;2.00;;;10.90;97.60;;;;;;6276730;22;20043;-83
2022/11/03 05:36:23;;;;;;;13.98;2.53;;;11.00;97.60;;;;;;6249059;22;20015;-83
2022/11/03 05:38:50;;;;;;;13.07;2.22;;;11.00;97.70;;;;;;6249526;22;20106;-83
2022/11/03 05:41:24;;;;;;;10.50;2.33;;;11.00;97.70;;;;;;6276473;22;20102;-83
2022/11/03 05:44:19;;;;;;;10.82;2.75;;;11.00;97.60;;;;;;6276116;22;20058;-82
2022/11/03 05:46:44;;;;;;;7.95;1.85;;;11.00;97.40;;;;;;6249868;22;20016;-83
2022/11/03 05:49:10;;;;;;;15.77;2.67;;;11.00;97.60;;;;;;6276330;22;20010;-83
2022/11/03 05:51:40;;;;;;;10.75;2.40;;;11.00;97.60;;;;;;6249846;22;20026;-83
2022/11/03 05:54:15;;;;;;;10.25;2.17;;;11.00;97.70;;;;;;6249400;22;20038;-83
2022/11/03 05:56:41;;;;;;;11.95;2.08;;;11.00;97.60;;;;;;6276043;22;20094;-83
2022/11/03 05:59:10;;;;;;;11.35;2.40;;;11.00;97.60;;;;;;6249338;22;20051;-83
2022/11/03 06:01:38;;;;;;;11.23;1.98;;;10.90;97.70;;;;;;6249697;22;20023;-83
2022/11/03 06:04:13;;;;;;;15.27;2.60;;;11.00;97.70;;;;;;6276609;22;20019;-83
2022/11/03 06:06:39;;;;;;;13.20;2.53;;;11.00;97.60;;;;;;6277413;22;20086;-83
2022/11/03 06:09:14;;;;;;;13.35;2.45;;;10.90;97.70;;;;;;6248957;22;20440;-82
2022/11/03 06:11:43;;;;;;;13.52;2.50;;;10.90;98.00;;;;;;6276371;22;20515;-82
2022/11/03 06:14:26;;;;;;;9.57;2.15;;;10.90;97.60;;;;;;6249177;22;20018;-82
2022/11/03 06:17:04;;;;;;;;;;;10.90;97.50;;;;;;6249404;22;20054;-83
2022/11/03 06:19:48;;;;;;;11.90;2.30;;;10.90;97.30;;;;;;6276758;22;19957;-82
2022/11/03 06:22:23;;;;;;;11.90;1.88;;;10.90;97.60;;;;;;6249420;22;20094;-82
2022/11/03 06:24:50;;;;;;;8.05;2.10;;;10.90;97.60;;;;;;6276434;22;20114;-82
2022/11/03 06:27:19;;;;;;;9.10;1.95;;;10.90;97.60;;;;;;6249724;22;20015;-82
2022/11/03 06:29:50;;;;;;;9.35;2.15;;;10.90;97.60;;;;;;6276289;22;20027;-83
2022/11/03 06:32:16;;;;;;;8.95;2.35;;;10.90;97.50;;;;;;6249304;22;20037;-83
2022/11/03 06:34:54;;;;;;;9.98;2.10;;;10.90;97.60;;;;;;6249323;22;20463;-83
2022/11/03 06:37:31;;;;;;;10.60;2.35;;;10.90;97.70;;;;;;6249073;22;20055;-83
2022/11/03 06:40:00;;;;;;;7.78;1.80;;;10.90;97.70;;;;;;6248684;22;20027;-82
2022/11/03 06:42:30;;;;;;;9.25;1.90;;;10.90;97.70;;;;;;6249249;22;20054;-82
2022/11/03 06:44:55;;;;;;;11.90;2.17;;;10.90;97.70;;;;;;6276229;22;20020;-82
2022/11/03 06:47:23;;;;;;;9.82;2.25;;;10.90;97.70;;;;;;6248309;22;20004;-82
2022/11/03 06:49:51;;;;;;;11.27;2.13;;;10.90;97.70;;;;;;6276001;22;20016;-82
2022/11/03 06:52:28;;;;;;;9.70;2.22;;;10.90;97.70;;;;;;6249046;22;20163;-82
2022/11/03 06:55:20;;;;;;;11.68;2.17;;;10.90;97.70;;;;;;6248521;22;20030;-82
2022/11/03 06:57:47;;;;;;;10.70;2.53;;;10.80;97.40;;;;;;6248800;22;20012;-82
2022/11/03 07:00:29;;;;;;;10.85;2.40;;;10.80;97.60;;;;;;6248469;22;20020;-82
2022/11/03 07:03:04;;;;;;;11.88;2.38;;;10.80;97.60;;;;;;6249215;22;20039;-82
2022/11/03 07:05:31;;;;;;;12.57;2.55;;;10.90;97.80;;;;;;6276506;22;20019;-83
2022/11/03 07:08:08;;;;;;;8.88;2.30;;;10.90;97.80;;;;;;6276155;22;20047;-83
2022/11/03 07:10:34;;;;;;;9.73;2.30;;;10.90;97.90;;;;;;6249045;22;20348;-83
2022/11/03 07:13:09;;;;;;;8.38;2.20;;;10.90;97.90;;;;;;6275278;22;20018;-82
2022/11/03 07:15:37;;;;;;;9.27;2.40;;;10.90;97.90;;;;;;6275819;22;20247;-82
2022/11/03 07:18:10;;;;;;;13.20;2.10;;;10.90;98.00;;;;;;6276258;22;20430;-82
2022/11/03 07:20:35;;;;;;;11.88;2.33;;;10.90;98.00;;;;;;6275766;22;20380;-82
2022/11/03 07:23:01;;;;;;;12.90;2.53;;;10.90;98.00;;;;;;6276160;22;20042;-83
2022/11/03 07:25:27;;;;;;;11.68;2.53;;;11.00;98.10;;;;;;6275361;22;20016;-82
2022/11/03 07:27:56;;;;;;;13.40;2.63;;;11.00;98.00;;;;;;6276385;22;20462;-82
2022/11/03 07:30:32;;;;;;;11.88;2.80;;;11.00;98.00;;;;;;6249158;22;20023;-83
2022/11/03 07:33:05;;;;;;;11.00;2.45;;;11.10;98.00;;;;;;6248600;22;20012;-82
2022/11/03 07:35:36;;;;;;;15.93;2.53;;;11.10;98.00;;;;;;6248559;22;20041;-82
2022/11/03 07:38:10;;;;;;;12.20;2.67;;;11.10;98.00;;;;;;6249206;22;20067;-82
2022/11/03 07:40:36;;;;;;;;;;;11.10;98.00;;;;;;6249593;22;20015;-82
2022/11/03 07:43:14;;;;;;;11.13;2.65;;;11.00;97.90;;;;;;6275702;22;19982;-83
2022/11/03 07:45:47;;;;;;;11.65;2.60;;;11.10;98.10;;;;;;6249178;22;20086;-82
2022/11/03 07:48:28;;;;;;;11.88;2.53;;;11.10;98.10;;;;;;6249106;22;20020;-82
2022/11/03 07:50:55;;;;;;;11.98;2.42;;;11.20;98.40;;;;;;6275559;22;20055;-84
2022/11/03 07:53:38;;;;;;;11.73;2.45;;;11.20;98.10;;;;;;6275686;22;20444;-84
2022/11/03 07:56:20;;;;;;;14.25;2.53;;;11.20;98.10;;;;;;6274328;22;20082;-83
2022/11/03 07:58:49;;;;;;;12.50;2.72;;;11.20;98.10;;;;;;6248273;22;20054;-83
2022/11/03 08:01:25;;;;;;;10.75;2.50;;;11.30;98.20;;;;;;6247164;22;20016;-82
2022/11/03 08:03:52;;;;;;;11.23;2.40;;;11.30;98.30;;;;;;6231042;22;20020;-82
2022/11/03 08:06:18;;;;;;;10.13;2.40;;;11.30;98.30;;;;;;6273816;22;20023;-82
2022/11/03 08:08:43;;;;;;;11.15;2.55;;;11.40;98.30;;;;;;6274566;22;20340;-82
2022/11/03 08:11:17;;;;;;;13.98;2.60;;;11.40;98.30;;;;;;6274251;22;20436;-82
2022/11/03 08:13:46;;;;;;;13.18;2.80;;;11.40;98.30;;;;;;6275097;22;20087;-82
2022/11/03 08:16:11;;;;;;;12.68;2.88;;;11.40;98.30;;;;;;6247995;22;20470;-82
2022/11/03 08:18:37;;;;;;;14.45;2.85;;;11.50;98.30;;;;;;6247048;22;20082;-81
2022/11/03 08:21:03;;;;;;;14.73;2.92;;;11.50;98.30;;;;;;6275020;22;20020;-80
2022/11/03 08:23:28;;;;;;;13.15;2.92;;;11.60;98.30;;;;;;6247604;22;20018;-81
2022/11/03 08:25:54;;;;;;;13.43;2.90;;;11.60;98.40;;;;;;6272536;22;20015;-81
2022/11/03 08:28:20;;;;;;;8.65;2.40;;;11.60;98.40;;;;;;6244794;22;20103;-81
2022/11/03 08:30:45;;;;;;;13.70;2.78;;;11.70;98.40;;;;;;6273567;22;20019;-82
2022/11/03 08:33:11;;;;;;;10.40;2.38;;;11.70;98.40;;;;;;6247284;22;20057;-82
2022/11/03 08:35:37;;;;;;;13.73;2.58;;;11.70;98.40;;;;;;6247941;22;20051;-83
2022/11/03 08:38:02;;;;;;;14.25;3.13;;;11.70;98.30;;;;;;6247666;22;20348;-82
2022/11/03 08:40:28;;;;;;;10.82;2.63;;;11.80;98.30;;;;;;6250140;22;20462;-83
2022/11/03 08:42:53;;;;;;;12.50;2.70;;;11.80;98.30;;;;;;6276750;22;20064;-84
2022/11/03 08:45:19;;;;;;;13.75;2.58;;;11.80;98.30;;;;;;6248481;22;20070;-84
2022/11/03 08:47:45;;;;;;;11.98;2.90;;;11.80;98.30;;;;;;6277059;22;20332;-84
2022/11/03 08:50:10;;;;;;;11.30;2.50;;;11.90;98.30;;;;;;6276686;22;20058;-82
2022/11/03 08:52:36;;;;;;;12.60;3.08;;;11.90;98.30;;;;;;6277236;22;20016;-82
2022/11/03 08:55:02;;;;;;;14.32;2.63;;;12.00;98.30;;;;;;6249058;22;20510;-83
2022/11/03 08:57:28;;;;;;;11.32;2.78;;;12.00;98.30;;;;;;6248868;22;20094;-83
2022/11/03 08:59:55;;;;;;;10.27;2.70;;;12.00;98.30;;;;;;6248577;22;20030;-82
2022/11/03 09:02:21;;;;;;;13.52;3.15;;;12.00;98.20;;;;;;6250079;22;20043;-82
2022/11/03 09:04:46;;;;;;;13.45;2.80;;;12.00;98.20;;;;;;6276039;22;20452;-83
2022/11/03 09:07:12;;;;;;;15.38;2.90;;;12.00;98.20;;;;;;6249108;22;20018;-82
2022/11/03 09:09:37;;;;;;;12.88;2.50;;;12.10;98.20;;;;;;6249299;22;20027;-83
2022/11/03 09:12:03;;;;;;;17.10;3.17;;;12.10;98.30;;;;;;6247529;22;20035;-83
2022/11/03 09:14:29;;;;;;;14.48;2.92;;;12.10;98.30;;;;;;6248202;22;20022;-83
2022/11/03 09:16:54;;;;;;;15.35;3.35;;;12.10;98.30;;;;;;6276420;22;20339;-82
2022/11/03 09:19:20;;;;;;;17.92;3.47;;;12.10;98.40;;;;;;6249158;22;20023;-83
2022/11/03 09:21:46;;;;;;;13.27;2.88;;;12.20;98.50;;;;;;6248565;22;20471;-82
2022/11/03 09:24:11;;;;;;;10.82;2.72;;;12.20;98.40;;;;;;6249633;22;20027;-83
2022/11/03 09:26:37;;;;;;;15.27;2.90;;;12.20;98.30;;;;;;6249586;22;20047;-82
2022/11/03 09:29:03;;;;;;;14.23;2.47;;;12.30;98.30;;;;;;6276001;22;20015;-82
2022/11/03 09:31:28;;;;;;;12.10;3.17;;;12.30;98.40;;;;;;6276890;22;20012;-82
2022/11/03 09:33:54;;;;;;;8.23;2.67;;;12.30;98.30;;;;;;6248839;22;20443;-83
2022/11/03 09:36:20;;;;;;;12.88;2.80;;;12.40;98.20;;;;;;6248884;22;20016;-83
2022/11/03 09:38:45;;;;;;;11.63;2.78;;;12.40;98.20;;;;;;6276531;22;20016;-83
2022/11/03 09:41:16;;;;;;;11.52;2.88;;;12.40;98.10;;;;;;6248307;22;20047;-82
2022/11/03 09:43:46;;;;;;;15.20;2.90;;;12.50;98.10;;;;;;6275655;22;20007;-82
2022/11/03 09:46:14;;;;;;;12.82;2.72;;;12.50;98.20;;;;;;6249584;22;20011;-82
2022/11/03 09:48:39;;;;;;;17.27;3.17;;;12.50;98.10;;;;;;6248513;22;20059;-82
2022/11/03 09:51:08;;;;;;;11.38;2.85;;;12.60;98.10;;;;;;6248745;22;20019;-82
2022/11/03 09:53:33;;;;;;;14.07;2.65;;;12.60;98.10;;;;;;6249007;22;20016;-82
2022/11/03 09:55:59;;;;;;;16.10;3.47;;;12.60;98.20;;;;;;6275704;22;20030;-82
2022/11/03 09:58:25;;;;;;;11.13;2.65;;;12.70;98.40;;;;;;6249669;22;20099;-82
2022/11/03 10:00:50;;;;;;;12.00;2.88;;;12.70;98.30;;;;;;6248806;22;20441;-82
2022/11/03 10:03:17;;;;;;;10.80;2.80;;;12.80;98.10;;;;;;6275559;22;20091;-82
2022/11/03 10:05:46;;;;;;;12.27;2.97;;;12.90;98.00;;;;;;6276230;22;20039;-82
2022/11/03 10:08:18;;;;;;;12.95;2.90;;;12.90;97.90;;;;;;6276351;22;20020;-81
2022/11/03 10:10:44;;;;;;;11.20;2.35;;;13.00;97.80;;;;;;6248743;22;20547;-82
2022/11/03 10:13:16;;;;;;;13.02;3.00;;;13.00;97.80;;;;;;6249632;22;20016;-82
2022/11/03 10:15:42;;;;;;;14.63;3.10;;;13.00;97.70;;;;;;6249058;22;20448;-82
2022/11/03 10:18:08;;;;;;;12.23;3.08;;;13.10;97.70;;;;;;6248410;22;20155;-82
2022/11/03 10:20:34;;;;;;;10.80;2.40;;;13.10;97.60;;;;;;6248427;22;20043;-82
2022/11/03 10:23:00;;;;;;;11.00;3.22;;;13.10;97.50;;;;;;6248886;22;20063;-82
2022/11/03 10:25:42;;;;;;;16.25;3.10;;;13.20;97.50;;;;;;6248483;22;20047;-81
2022/11/03 10:28:10;;;;;;;12.02;2.85;;;13.20;97.40;;;;;;6249103;22;20098;-83
2022/11/03 10:30:51;;;;;;;11.85;2.55;;;13.30;97.50;;;;;;6248553;22;20020;-87
2022/11/03 10:33:36;;;;;;;13.15;3.05;;;13.30;97.40;;;;;;6248999;22;20136;-84
2022/11/03 10:36:14;;;;;;;11.85;2.78;;;13.40;97.30;;;;;;6275822;22;20474;-83
2022/11/03 10:38:40;;;;;;;10.35;2.50;;;13.40;97.30;;;;;;6248450;22;20448;-84
2022/11/03 10:41:13;;;;;;;11.00;2.75;;;13.50;97.30;;;;;;6276170;22;20027;-83
2022/11/03 10:43:40;;;;;;;10.48;2.75;;;13.50;97.20;;;;;;6276391;22;20383;-82
2022/11/03 10:46:23;;;;;;;12.80;2.70;;;13.70;97.10;;;;;;6248662;22;20019;-83
2022/11/03 10:49:13;;;;;;;13.18;2.75;;;13.70;96.80;;;;;;6277020;22;20016;-83
2022/11/03 10:51:40;;;;;;;10.00;2.40;;;13.80;96.60;;;;;;6248819;22;20356;-84
2022/11/03 10:54:13;;;;;;;15.85;2.63;;;13.80;96.60;;;;;;6248107;22;20023;-83
2022/11/03 10:56:40;;;;;;;9.13;2.40;;;13.80;96.50;;;;;;6275935;22;20023;-83
2022/11/03 10:59:15;;;;;;;10.88;2.55;;;13.90;96.50;;;;;;6247826;22;20015;-83
2022/11/03 11:01:41;;;;;;;9.35;2.65;;;13.90;96.40;;;;;;6247878;22;20019;-83
2022/11/03 11:04:06;;;;;;;15.38;2.80;;;13.90;96.30;;;;;;6246822;22;20341;-83
2022/11/03 11:06:32;;;;;;;8.70;2.13;;;14.00;96.20;;;;;;6247919;22;20336;-84
2022/11/03 11:09:04;;;;;;;11.25;2.40;;;14.00;96.00;;;;;;6248320;22;20574;-82
2022/11/03 11:11:30;;;;;;;9.60;2.50;;;14.10;96.00;;;;;;6276256;22;20011;-83
2022/11/03 11:14:24;;;;;;;9.75;2.30;;;14.10;96.00;;;;;;6247587;22;20404;-84
2022/11/03 11:16:55;;;;;;;9.27;2.00;;;14.10;95.80;;;;;;6247911;22;20090;-84
2022/11/03 11:19:22;;;;;;;13.82;2.60;;;14.10;95.90;;;;;;6251087;22;20051;-83
2022/11/03 11:21:48;;;;;;;8.88;2.33;;;14.20;95.80;;;;;;6274540;22;20016;-83
2022/11/03 11:24:42;;;;;;;8.80;2.33;;;14.30;95.70;;;;;;6275858;22;20389;-81
2022/11/03 11:27:33;;;;;;;8.15;2.08;;;14.30;95.40;;;;;;6246141;22;20106;-82
2022/11/03 11:30:00;;;;;;;13.10;2.40;;;14.40;95.40;;;;;;6249434;22;20102;-83
2022/11/03 11:32:38;;;;;;;10.40;2.40;;;14.50;95.50;;;;;;6250705;22;20012;-84
2022/11/03 11:35:09;;;;;;;9.13;2.30;;;14.50;95.60;;;;;;6247673;22;20020;-83
2022/11/03 11:37:36;;;;;;;10.95;2.72;;;14.40;95.20;;;;;;6248717;22;20078;-82
2022/11/03 11:40:12;;;;;;;11.02;2.30;;;14.40;95.10;;;;;;6248826;22;20408;-82
2022/11/03 11:43:00;;;;;;;15.50;2.60;;;14.50;95.00;;;;;;6274993;22;20026;-84
2022/11/03 11:46:03;;;;;;;13.55;2.65;;;14.50;94.80;;;;;;6273550;22;20026;-83
2022/11/03 11:52:46;;;;;;;9.88;2.03;;;14.60;94.70;;;;;;6246155;22;20020;-91
2022/11/03 12:02:36;;;;;;;8.30;2.00;;;14.60;94.70;;;;;;6243435;22;20449;-85
2022/11/03 12:05:18;;;;;;;12.13;2.33;;;14.60;94.80;;;;;;6242759;23;20023;-84
2022/11/03 12:11:04;;;;;;;8.80;2.10;;;14.60;94.40;;;;;;6240245;22;20292;-87
2022/11/03 12:13:54;;;;;;;9.02;2.00;;;14.70;94.30;;;;;;6250961;22;20024;-88
2022/11/03 12:19:38;;;;;;;8.65;2.40;;;14.70;94.20;;;;;;6238912;22;20024;-88
2022/11/03 12:22:06;;;;;;;10.00;2.33;;;14.70;93.70;;;;;;6251354;22;20073;-85
2022/11/03 12:24:32;;;;;;;12.93;2.38;;;14.80;93.90;;;;;;6249121;22;20022;-82
2022/11/03 12:26:58;;;;;;;11.05;2.10;;;14.70;93.80;;;;;;6249806;22;20094;-84
2022/11/03 12:29:24;;;;;;;11.63;2.38;;;14.80;93.70;;;;;;6250104;22;20047;-83
2022/11/03 12:31:50;;;;;;;7.72;2.10;;;14.80;93.70;;;;;;6248437;22;20027;-83
2022/11/03 12:34:16;;;;;;;9.13;2.20;;;14.80;93.70;;;;;;6249006;22;20007;-84
2022/11/03 12:36:43;;;;;;;10.65;2.30;;;14.80;93.80;;;;;;6277097;22;20084;-84
2022/11/03 12:39:08;;;;;;;8.88;2.35;;;14.80;93.60;;;;;;6248423;22;20631;-84
2022/11/03 12:41:34;;;;;;;10.05;2.13;;;14.80;93.50;;;;;;6249294;22;20011;-84
2022/11/03 12:43:59;;;;;;;10.20;2.20;;;14.80;93.60;;;;;;6275577;22;20339;-83
2022/11/03 12:46:25;;;;;;;7.63;1.90;;;14.80;93.70;;;;;;6248650;22;20016;-84
2022/11/03 12:48:51;;;;;;;8.50;2.10;;;14.80;93.90;;;;;;6249594;22;20019;-84
2022/11/03 12:51:18;;;;;;;10.35;2.20;;;14.80;93.80;;;;;;6276309;22;20018;-83
2022/11/03 12:53:44;;;;;;;9.05;2.13;;;14.90;93.70;;;;;;6247866;22;20039;-84
2022/11/03 12:56:11;;;;;;;8.68;2.33;;;14.90;93.70;;;;;;6249784;22;20011;-84
2022/11/03 12:58:37;;;;;;;8.85;2.28;;;14.90;93.60;;;;;;6249104;22;20133;-83
2022/11/03 13:01:03;;;;;;;8.55;2.30;;;15.00;93.40;;;;;;6248991;22;20459;-85
2022/11/03 13:03:31;;;;;;;7.38;2.05;;;15.00;93.30;;;;;;6247978;22;20095;-85
2022/11/03 13:05:57;;;;;;;7.72;1.90;;;15.00;93.30;;;;;;6249121;22;20007;-83
2022/11/03 13:08:23;;;;;;;6.72;1.75;;;15.10;93.50;;;;;;6249933;22;20011;-84
2022/11/03 13:10:49;;;;;;;10.55;1.98;;;15.10;93.40;;;;;;6250270;22;20436;-83
2022/11/03 13:13:15;;;;;;;9.55;2.17;;;15.10;93.10;;;;;;6276908;22;20321;-84
2022/11/03 13:15:41;;;;;;;7.43;2.00;;;15.10;92.80;;;;;;6249936;22;20022;-83
2022/11/03 13:18:06;;;;;;;10.90;2.20;;;15.10;92.40;;;;;;6249438;22;20392;-84
2022/11/03 13:20:33;;;;;;;7.88;1.80;;;15.10;92.60;;;;;;6249856;22;20055;-84
2022/11/03 13:22:59;;;;;;;8.23;2.00;;;15.10;92.60;;;;;;6249809;22;20436;-84
2022/11/03 13:25:25;;;;;;;7.55;2.00;;;15.10;92.50;;;;;;6250231;22;20018;-84
2022/11/03 13:27:53;;;;;;;6.95;1.98;;;15.10;92.80;;;;;;6277489;22;20081;-85
2022/11/03 13:30:23;;;;;;;9.52;2.10;;;15.10;92.80;;;;;;6250510;22;20062;-83
2022/11/03 13:32:49;;;;;;;8.13;2.10;;;15.10;92.90;;;;;;6250131;22;20012;-84
2022/11/03 13:35:19;;;;;;;10.70;2.20;;;15.10;92.50;;;;;;6248753;22;20015;-85
2022/11/03 13:37:45;;;;;;;7.03;1.60;;;15.10;92.40;;;;;;6250105;22;20310;-87
2022/11/03 13:40:12;;;;;;;8.77;1.88;;;15.10;92.50;;;;;;6250419;22;20019;-84
2022/11/03 13:42:38;;;;;;;8.18;1.67;;;15.10;92.70;;;;;;6276178;22;20011;-85
2022/11/03 13:45:04;;;;;;;11.35;2.08;;;15.10;92.50;;;;;;6249191;22;20091;-84
2022/11/03 13:47:30;;;;;;;8.57;1.90;;;15.10;92.20;;;;;;6249281;22;20379;-84
2022/11/03 13:49:56;;;;;;;7.43;2.00;;;15.10;92.30;;;;;;6248662;22;20043;-86
2022/11/03 13:52:23;;;;;;;7.10;1.95;;;15.10;92.40;;;;;;6249277;22;20040;-84
2022/11/03 13:54:50;;;;;;;9.30;1.98;;;15.10;92.60;;;;;;6248679;22;20016;-84
2022/11/03 13:57:16;;;;;;;8.68;1.95;;;15.10;92.40;;;;;;6276419;22;20067;-84
2022/11/03 13:59:41;;;;;;;9.77;1.85;;;15.10;92.30;;;;;;6249220;22;20020;-85
2022/11/03 14:02:09;;;;;;;10.00;1.90;;;15.10;92.10;;;;;;6275431;22;20020;-84
2022/11/03 14:04:34;;;;;;;7.47;1.80;;;15.10;91.80;;;;;;6249307;22;20026;-85
2022/11/03 14:07:00;;;;;;;10.10;1.40;;;15.10;92.10;;;;;;6248822;22;20185;-85
2022/11/03 14:09:26;;;;;;;11.00;1.80;;;15.10;92.00;;;;;;6276766;22;20094;-87
2022/11/03 14:14:35;;;;;;;7.93;1.77;;;15.10;91.70;;;;;;6277485;22;20023;-84
2022/11/03 14:17:01;;;;;;;11.30;1.98;;;15.00;91.80;;;;;;6275671;22;20082;-84
2022/11/03 14:19:26;;;;;;;8.82;2.05;;;15.00;91.90;;;;;;6249298;22;20020;-83
2022/11/03 14:21:52;;;;;;;7.05;1.75;;;15.10;91.80;;;;;;6248918;22;20057;-84
2022/11/03 14:24:17;;;;;;;6.28;1.55;;;15.10;91.90;;;;;;6248406;22;20067;-83
2022/11/03 14:26:43;;;;;;;7.55;1.70;;;15.10;91.80;;;;;;6275550;22;20330;-83
2022/11/03 14:29:09;;;;;;;11.15;1.80;;;15.10;91.80;;;;;;6248841;22;20069;-86
2022/11/03 14:31:35;;;;;;;7.60;1.70;;;15.00;91.70;;;;;;6275863;22;20015;-83
2022/11/03 14:34:00;;;;;;;9.68;2.00;;;15.00;91.80;;;;;;6248512;22;20070;-85
2022/11/03 14:36:26;;;;;;;8.02;1.92;;;15.00;91.50;;;;;;6249151;22;20012;-85
2022/11/03 14:38:52;;;;;;;7.93;1.60;;;15.00;91.60;;;;;;6248214;22;20436;-87
2022/11/03 14:44:02;;;;;;;7.00;1.70;;;15.00;91.70;;;;;;6247592;22;20058;-91
2022/11/03 14:46:28;;;;;;;6.63;1.60;;;15.00;91.70;;;;;;6277054;22;20087;-86
2022/11/03 14:48:54;;;;;;;8.60;1.65;;;15.00;91.70;;;;;;6248156;22;20016;-85
2022/11/03 14:51:19;;;;;;;7.63;1.83;;;15.00;91.70;;;;;;6248884;22;20424;-86
2022/11/03 14:53:45;;;;;;;9.15;1.65;;;15.00;91.60;;;;;;6248469;22;20022;-87
2022/11/03 14:56:11;;;;;;;6.65;1.40;;;15.00;91.40;;;;;;6276250;22;20087;-86
2022/11/03 14:58:37;;;;;;;9.02;1.85;;;15.00;91.80;;;;;;6248291;22;20090;-86
2022/11/03 15:01:03;;;;;;;9.10;1.60;;;15.00;91.90;;;;;;6249130;22;20380;-86
2022/11/03 15:03:28;;;;;;;8.40;1.67;;;15.00;91.70;;;;;;6249275;22;20043;-86
2022/11/03 15:05:54;;;;;;;8.05;1.63;;;15.00;91.90;;;;;;6247516;22;20102;-87
2022/11/03 15:08:22;;;;;;;5.07;1.35;;;15.00;91.80;;;;;;6275402;22;20018;-85
2022/11/03 15:10:48;;;;;;;6.70;1.40;;;15.00;91.90;;;;;;6248457;22;20432;-86
2022/11/03 15:13:16;;;;;;;6.55;1.45;;;15.00;92.00;;;;;;6275273;22;20012;-86
2022/11/03 15:15:42;;;;;;;14.57;1.85;;;15.00;92.40;;;;;;6248366;22;20073;-86